createdAt,value
2023-05-25T00:00:47.000Z,53.45
2023-05-25T00:01:48.000Z,53.50
2023-05-25T00:02:49.000Z,53.38
2023-05-25T00:03:51.000Z,53.40
2023-05-25T00:04:48.000Z,53.63
2023-05-25T00:05:48.000Z,53.85
2023-05-25T00:06:48.000Z,53.28
2023-05-25T00:07:47.000Z,53.10
2023-05-25T00:08:50.000Z,53.10
2023-05-25T00:09:47.000Z,53.48
2023-05-25T00:10:48.000Z,53.38
2023-05-25T00:11:48.000Z,53.08
2023-05-25T00:12:47.000Z,53.30
2023-05-25T00:13:48.000Z,53.35
2023-05-25T00:14:48.000Z,53.40
2023-05-25T00:15:48.000Z,53.58
2023-05-25T00:16:49.000Z,53.49
2023-05-25T00:17:48.000Z,53.54
2023-05-25T00:18:48.000Z,53.44
2023-05-25T00:19:48.000Z,53.41
2023-05-25T00:20:49.000Z,53.46
2023-05-25T00:21:48.000Z,53.42
2023-05-25T00:22:48.000Z,53.24
2023-05-25T00:23:48.000Z,53.44
2023-05-25T00:24:48.000Z,53.90
2023-05-25T00:25:48.000Z,53.69
2023-05-25T00:26:48.000Z,54.03
2023-05-25T00:27:48.000Z,53.69
2023-05-25T00:28:48.000Z,54.00
2023-05-25T00:29:48.000Z,54.24
2023-05-25T00:30:48.000Z,54.00
2023-05-25T00:31:49.000Z,54.79
2023-05-25T00:32:48.000Z,55.06
2023-05-25T00:33:48.000Z,54.50
2023-05-25T00:34:48.000Z,54.65
2023-05-25T00:35:48.000Z,54.95
2023-05-25T00:36:48.000Z,54.46
2023-05-25T00:37:48.000Z,54.50
2023-05-25T00:38:48.000Z,55.12
2023-05-25T00:39:48.000Z,55.24
2023-05-25T00:40:53.000Z,55.09
2023-05-25T00:41:48.000Z,54.74
2023-05-25T00:42:50.000Z,54.59
2023-05-25T00:43:48.000Z,54.52
2023-05-25T00:44:48.000Z,55.05
2023-05-25T00:45:48.000Z,55.45
2023-05-25T00:46:50.000Z,55.60
2023-05-25T00:47:50.000Z,55.18
2023-05-25T00:48:52.000Z,55.22
2023-05-25T00:49:48.000Z,55.03
2023-05-25T00:50:52.000Z,55.01
2023-05-25T00:51:49.000Z,55.82
2023-05-25T00:52:48.000Z,55.19
2023-05-25T00:53:47.000Z,55.02
2023-05-25T00:54:51.000Z,55.36
2023-05-25T00:55:58.000Z,55.67
2023-05-25T00:57:04.000Z,55.41
2023-05-25T00:57:50.000Z,54.98
2023-05-25T00:58:53.000Z,55.22
2023-05-25T00:59:49.000Z,54.90
2023-05-25T01:00:48.000Z,54.85
2023-05-25T01:01:49.000Z,55.29
2023-05-25T01:02:51.000Z,55.74
2023-05-25T01:03:55.000Z,55.43
2023-05-25T01:04:54.000Z,55.25
2023-05-25T01:05:50.000Z,55.17
2023-05-25T01:06:48.000Z,55.40
2023-05-25T01:07:50.000Z,55.35
2023-05-25T01:08:51.000Z,55.17
2023-05-25T01:09:56.000Z,55.26
2023-05-25T01:10:49.000Z,55.68
2023-05-25T01:11:50.000Z,55.13
2023-05-25T01:12:51.000Z,55.03
2023-05-25T01:13:51.000Z,55.05
2023-05-25T01:14:48.000Z,55.12
2023-05-25T01:15:49.000Z,55.77
2023-05-25T01:16:48.000Z,55.63
2023-05-25T01:17:53.000Z,55.60
2023-05-25T01:18:51.000Z,55.37
2023-05-25T01:19:48.000Z,55.52
2023-05-25T01:20:55.000Z,55.31
2023-05-25T01:21:59.000Z,55.58
2023-05-25T01:23:09.000Z,55.59
2023-05-25T01:23:54.000Z,55.34
2023-05-25T01:24:53.000Z,55.53
2023-05-25T01:25:52.000Z,55.35
2023-05-25T01:26:58.000Z,55.93
2023-05-25T01:27:58.000Z,56.30
2023-05-25T01:28:51.000Z,55.70
2023-05-25T01:29:48.000Z,55.81
2023-05-25T01:30:49.000Z,55.96
2023-05-25T01:31:49.000Z,56.32
2023-05-25T01:32:48.000Z,56.49
2023-05-25T01:33:50.000Z,55.80
2023-05-25T01:34:49.000Z,55.88
2023-05-25T01:35:48.000Z,55.57
2023-05-25T01:36:48.000Z,56.30
2023-05-25T01:37:50.000Z,55.96
2023-05-25T01:38:48.000Z,55.84
2023-05-25T01:39:48.000Z,56.06
2023-05-25T01:40:48.000Z,55.78
2023-05-25T01:41:48.000Z,55.61
2023-05-25T01:42:48.000Z,56.22
2023-05-25T01:43:48.000Z,55.97
2023-05-25T01:44:49.000Z,56.06
2023-05-25T01:45:51.000Z,55.94
2023-05-25T01:47:08.000Z,56.36
2023-05-25T01:48:01.000Z,56.36
2023-05-25T01:48:58.000Z,56.50
2023-05-25T01:49:58.000Z,56.24
2023-05-25T01:50:56.000Z,56.82
2023-05-25T01:52:11.000Z,56.23
2023-05-25T01:52:55.000Z,56.67
2023-05-25T01:53:56.000Z,57.11
2023-05-25T01:55:00.000Z,56.77
2023-05-25T01:55:57.000Z,56.68
2023-05-25T01:56:49.000Z,56.80
2023-05-25T01:57:50.000Z,56.63
2023-05-25T01:58:49.000Z,56.71
2023-05-25T01:59:50.000Z,56.93
2023-05-25T02:00:49.000Z,56.43
2023-05-25T02:01:49.000Z,57.49
2023-05-25T02:02:50.000Z,57.24
2023-05-25T02:03:48.000Z,57.21
2023-05-25T02:04:48.000Z,57.69
2023-05-25T02:05:48.000Z,57.23
2023-05-25T02:06:50.000Z,57.77
2023-05-25T02:07:48.000Z,57.44
2023-05-25T02:08:48.000Z,57.26
2023-05-25T02:09:48.000Z,57.24
2023-05-25T02:10:48.000Z,56.80
2023-05-25T02:11:48.000Z,57.43
2023-05-25T02:12:48.000Z,57.77
2023-05-25T02:13:48.000Z,57.48
2023-05-25T02:14:48.000Z,58.16
2023-05-25T02:15:48.000Z,57.76
2023-05-25T02:16:47.000Z,57.74
2023-05-25T02:17:47.000Z,57.49
2023-05-25T02:18:49.000Z,57.59
2023-05-25T02:19:51.000Z,58.19
2023-05-25T02:20:47.000Z,57.80
2023-05-25T02:21:47.000Z,57.42
2023-05-25T02:22:47.000Z,57.94
2023-05-25T02:23:47.000Z,57.94
2023-05-25T02:24:47.000Z,58.00
2023-05-25T02:25:49.000Z,58.74
2023-05-25T02:26:48.000Z,58.86
2023-05-25T02:27:48.000Z,58.80
2023-05-25T02:28:49.000Z,58.45
2023-05-25T02:29:47.000Z,58.77
2023-05-25T02:30:47.000Z,58.43
2023-05-25T02:31:47.000Z,58.29
2023-05-25T02:32:48.000Z,58.36
2023-05-25T02:33:47.000Z,58.99
2023-05-25T02:34:47.000Z,59.18
2023-05-25T02:35:47.000Z,59.24
2023-05-25T02:36:47.000Z,59.77
2023-05-25T02:37:47.000Z,60.81
2023-05-25T02:38:50.000Z,60.74
2023-05-25T02:39:47.000Z,61.10
2023-05-25T02:40:47.000Z,61.49
2023-05-25T02:41:47.000Z,61.64
2023-05-25T02:42:47.000Z,61.74
2023-05-25T02:43:48.000Z,62.13
2023-05-25T02:44:47.000Z,62.40
2023-05-25T02:45:47.000Z,62.32
2023-05-25T02:46:47.000Z,63.32
2023-05-25T02:47:47.000Z,63.82
2023-05-25T02:48:48.000Z,63.98
2023-05-25T02:49:47.000Z,64.31
2023-05-25T02:50:47.000Z,64.31
2023-05-25T02:51:47.000Z,65.28
2023-05-25T02:52:47.000Z,65.34
2023-05-25T02:53:47.000Z,64.75
2023-05-25T02:54:47.000Z,65.23
2023-05-25T02:55:48.000Z,65.18
2023-05-25T02:56:48.000Z,64.85
2023-05-25T02:57:48.000Z,65.76
2023-05-25T02:58:48.000Z,65.50
2023-05-25T02:59:48.000Z,66.17
2023-05-25T03:00:48.000Z,65.96
2023-05-25T03:01:48.000Z,65.67
2023-05-25T03:02:48.000Z,64.86
2023-05-25T03:03:50.000Z,64.61
2023-05-25T03:04:48.000Z,64.70
2023-05-25T03:05:47.000Z,63.84
2023-05-25T03:06:48.000Z,63.78
2023-05-25T03:07:47.000Z,63.98
2023-05-25T03:08:47.000Z,64.28
2023-05-25T03:09:48.000Z,63.74
2023-05-25T03:10:47.000Z,64.12
2023-05-25T03:11:48.000Z,64.40
2023-05-25T03:12:47.000Z,64.57
2023-05-25T03:13:48.000Z,64.31
2023-05-25T03:14:47.000Z,63.52
2023-05-25T03:15:47.000Z,64.39
2023-05-25T03:16:47.000Z,64.07
2023-05-25T03:17:48.000Z,65.23
2023-05-25T03:18:47.000Z,64.91
2023-05-25T03:19:47.000Z,64.91
2023-05-25T03:20:47.000Z,65.77
2023-05-25T03:21:47.000Z,65.88
2023-05-25T03:22:47.000Z,66.37
2023-05-25T03:23:47.000Z,66.86
2023-05-25T03:24:48.000Z,67.75
2023-05-25T03:25:48.000Z,67.76
2023-05-25T03:26:47.000Z,67.54
2023-05-25T03:27:51.000Z,67.57
2023-05-25T03:28:47.000Z,67.91
2023-05-25T03:29:48.000Z,67.62
2023-05-25T03:30:47.000Z,66.93
2023-05-25T03:31:47.000Z,67.31
2023-05-25T03:32:47.000Z,67.21
2023-05-25T03:33:47.000Z,66.36
2023-05-25T03:34:47.000Z,66.15
2023-05-25T03:35:47.000Z,66.33
2023-05-25T03:36:47.000Z,65.73
2023-05-25T03:37:47.000Z,66.06
2023-05-25T03:38:47.000Z,66.16
2023-05-25T03:39:47.000Z,66.47
2023-05-25T03:40:47.000Z,66.47
2023-05-25T03:41:47.000Z,65.79
2023-05-25T03:42:47.000Z,65.75
2023-05-25T03:43:47.000Z,65.30
2023-05-25T03:44:47.000Z,65.23
2023-05-25T03:45:47.000Z,64.84
2023-05-25T03:46:47.000Z,66.19
2023-05-25T03:47:48.000Z,65.63
2023-05-25T03:48:48.000Z,65.76
2023-05-25T03:49:48.000Z,66.14
2023-05-25T03:50:48.000Z,66.86
2023-05-25T03:51:48.000Z,66.64
2023-05-25T03:52:48.000Z,66.59
2023-05-25T03:53:48.000Z,65.78
2023-05-25T03:54:48.000Z,66.46
2023-05-25T03:55:51.000Z,66.39
2023-05-25T03:56:48.000Z,66.37
2023-05-25T03:57:48.000Z,65.68
2023-05-25T03:58:48.000Z,66.36
2023-05-25T03:59:48.000Z,66.51
2023-05-25T04:00:48.000Z,66.24
2023-05-25T04:01:48.000Z,65.72
2023-05-25T04:02:48.000Z,66.11
2023-05-25T04:03:48.000Z,65.66
2023-05-25T04:04:50.000Z,65.36
2023-05-25T04:05:48.000Z,65.56
2023-05-25T04:06:48.000Z,65.70
2023-05-25T04:07:48.000Z,65.87
2023-05-25T04:08:48.000Z,65.64
2023-05-25T04:09:48.000Z,65.98
2023-05-25T04:10:48.000Z,66.69
2023-05-25T04:11:48.000Z,66.52
2023-05-25T04:12:48.000Z,66.60
2023-05-25T04:13:48.000Z,66.21
2023-05-25T04:14:48.000Z,65.57
2023-05-25T04:15:49.000Z,66.42
2023-05-25T04:16:48.000Z,65.76
2023-05-25T04:17:48.000Z,66.41
2023-05-25T04:18:48.000Z,67.02
2023-05-25T04:19:47.000Z,67.39
2023-05-25T04:20:48.000Z,66.92
2023-05-25T04:21:48.000Z,66.54
2023-05-25T04:22:48.000Z,66.96
2023-05-25T04:23:48.000Z,67.30
2023-05-25T04:24:48.000Z,67.82
2023-05-25T04:25:49.000Z,66.83
2023-05-25T04:26:48.000Z,67.34
2023-05-25T04:27:48.000Z,68.32
2023-05-25T04:28:48.000Z,67.96
2023-05-25T04:29:49.000Z,67.37
2023-05-25T04:30:48.000Z,67.89
2023-05-25T04:31:48.000Z,67.89
2023-05-25T04:32:47.000Z,66.97
2023-05-25T04:33:47.000Z,66.88
2023-05-25T04:34:48.000Z,67.16
2023-05-25T04:35:49.000Z,66.80
2023-05-25T04:36:48.000Z,66.25
2023-05-25T04:37:48.000Z,66.75
2023-05-25T04:38:50.000Z,66.75
2023-05-25T04:39:48.000Z,66.48
2023-05-25T04:40:48.000Z,66.07
2023-05-25T04:41:48.000Z,66.31
2023-05-25T04:42:48.000Z,66.26
2023-05-25T04:43:49.000Z,65.71
2023-05-25T04:44:50.000Z,67.24
2023-05-25T04:45:51.000Z,66.18
2023-05-25T04:46:48.000Z,66.79
2023-05-25T04:47:48.000Z,66.77
2023-05-25T04:48:49.000Z,67.22
2023-05-25T04:49:47.000Z,66.92
2023-05-25T04:50:47.000Z,66.87
2023-05-25T04:51:47.000Z,66.16
2023-05-25T04:52:47.000Z,65.94
2023-05-25T04:53:48.000Z,66.45
2023-05-25T04:54:47.000Z,66.25
2023-05-25T04:55:48.000Z,66.35
2023-05-25T04:56:47.000Z,65.88
2023-05-25T04:57:47.000Z,66.90
2023-05-25T04:58:47.000Z,66.55
2023-05-25T04:59:47.000Z,66.07
2023-05-25T05:00:47.000Z,66.27
2023-05-25T05:01:47.000Z,65.85
2023-05-25T05:02:48.000Z,66.18
2023-05-25T05:03:47.000Z,65.82
2023-05-25T05:04:50.000Z,66.07
2023-05-25T05:05:47.000Z,66.11
2023-05-25T05:06:47.000Z,65.76
2023-05-25T05:07:47.000Z,66.23
2023-05-25T05:08:47.000Z,66.30
2023-05-25T05:09:47.000Z,65.74
2023-05-25T05:10:47.000Z,66.22
2023-05-25T05:11:47.000Z,65.79
2023-05-25T05:12:47.000Z,65.85
2023-05-25T05:13:47.000Z,66.04
2023-05-25T05:14:48.000Z,65.74
2023-05-25T05:15:47.000Z,65.55
2023-05-25T05:16:47.000Z,65.54
2023-05-25T05:17:50.000Z,65.87
2023-05-25T05:18:47.000Z,65.53
2023-05-25T05:19:47.000Z,65.24
2023-05-25T05:20:47.000Z,65.57
2023-05-25T05:21:47.000Z,65.42
2023-05-25T05:22:47.000Z,65.94
2023-05-25T05:23:48.000Z,65.95
2023-05-25T05:24:47.000Z,66.26
2023-05-25T05:25:47.000Z,66.25
2023-05-25T05:26:47.000Z,66.41
2023-05-25T05:27:48.000Z,65.83
2023-05-25T05:28:48.000Z,65.73
2023-05-25T05:29:48.000Z,66.26
2023-05-25T05:30:48.000Z,66.00
2023-05-25T05:31:47.000Z,66.27
2023-05-25T05:32:47.000Z,66.48
2023-05-25T05:33:48.000Z,66.35
2023-05-25T05:34:48.000Z,66.52
2023-05-25T05:35:49.000Z,66.71
2023-05-25T05:36:47.000Z,66.25
2023-05-25T05:37:47.000Z,66.73
2023-05-25T05:38:47.000Z,66.80
2023-05-25T05:39:47.000Z,66.64
2023-05-25T05:40:47.000Z,66.72
2023-05-25T05:41:47.000Z,66.44
2023-05-25T05:42:48.000Z,66.29
2023-05-25T05:43:47.000Z,66.68
2023-05-25T05:44:47.000Z,66.14
2023-05-25T05:45:47.000Z,66.32
2023-05-25T05:46:47.000Z,66.43
2023-05-25T05:47:47.000Z,66.10
2023-05-25T05:48:47.000Z,65.71
2023-05-25T05:49:47.000Z,66.46
2023-05-25T05:50:47.000Z,66.79
2023-05-25T05:51:47.000Z,66.22
2023-05-25T05:52:47.000Z,66.16
2023-05-25T05:53:47.000Z,65.67
2023-05-25T05:54:47.000Z,65.60
2023-05-25T05:55:52.000Z,64.71
2023-05-25T05:56:51.000Z,64.46
2023-05-25T05:57:47.000Z,65.59
2023-05-25T05:58:50.000Z,65.05
2023-05-25T05:59:47.000Z,64.99
2023-05-25T06:00:47.000Z,65.58
2023-05-25T06:01:48.000Z,65.27
2023-05-25T06:02:47.000Z,64.91
2023-05-25T06:03:48.000Z,64.82
2023-05-25T06:04:47.000Z,64.35
2023-05-25T06:05:48.000Z,63.78
2023-05-25T06:06:47.000Z,63.56
2023-05-25T06:07:48.000Z,62.85
2023-05-25T06:08:49.000Z,63.22
2023-05-25T06:09:48.000Z,63.02
2023-05-25T06:10:47.000Z,61.91
2023-05-25T06:11:48.000Z,62.29
2023-05-25T06:12:47.000Z,62.40
2023-05-25T06:13:47.000Z,62.12
2023-05-25T06:14:49.000Z,61.87
2023-05-25T06:15:48.000Z,60.97
2023-05-25T06:16:48.000Z,60.93
2023-05-25T06:17:47.000Z,60.87
2023-05-25T06:18:47.000Z,61.61
2023-05-25T06:19:48.000Z,60.85
2023-05-25T06:20:48.000Z,60.80
2023-05-25T06:21:48.000Z,60.72
2023-05-25T06:22:48.000Z,60.55
2023-05-25T06:23:48.000Z,60.21
2023-05-25T06:24:48.000Z,60.70
2023-05-25T06:25:51.000Z,60.41
2023-05-25T06:26:48.000Z,60.05
2023-05-25T06:27:48.000Z,60.04
2023-05-25T06:28:49.000Z,60.05
2023-05-25T06:29:48.000Z,59.60
2023-05-25T06:30:48.000Z,60.22
2023-05-25T06:31:48.000Z,59.53
2023-05-25T06:32:48.000Z,59.75
2023-05-25T06:33:48.000Z,60.00
2023-05-25T06:34:48.000Z,59.45
2023-05-25T06:35:48.000Z,59.43
2023-05-25T06:36:48.000Z,60.36
2023-05-25T06:37:48.000Z,60.56
2023-05-25T06:38:48.000Z,60.64
2023-05-25T06:39:48.000Z,59.33
2023-05-25T06:40:48.000Z,59.40
2023-05-25T06:41:49.000Z,59.83
2023-05-25T06:42:48.000Z,59.19
2023-05-25T06:43:48.000Z,59.38
2023-05-25T06:44:48.000Z,59.48
2023-05-25T06:45:48.000Z,59.55
2023-05-25T06:46:48.000Z,59.33
2023-05-25T06:47:48.000Z,59.42
2023-05-25T06:48:48.000Z,59.11
2023-05-25T06:49:48.000Z,59.42
2023-05-25T06:50:48.000Z,58.96
2023-05-25T06:51:49.000Z,58.83
2023-05-25T06:52:47.000Z,58.90
2023-05-25T06:53:47.000Z,59.23
2023-05-25T06:54:47.000Z,58.14
2023-05-25T06:55:47.000Z,58.63
2023-05-25T06:56:47.000Z,59.63
2023-05-25T06:57:48.000Z,59.07
2023-05-25T06:58:48.000Z,58.84
2023-05-25T06:59:48.000Z,58.88
2023-05-25T07:00:47.000Z,58.06
2023-05-25T07:01:48.000Z,58.33
2023-05-25T07:02:47.000Z,58.02
2023-05-25T07:03:47.000Z,58.25
2023-05-25T07:04:47.000Z,58.44
2023-05-25T07:05:47.000Z,57.93
2023-05-25T07:06:47.000Z,57.69
2023-05-25T07:07:47.000Z,57.71
2023-05-25T07:08:47.000Z,57.72
2023-05-25T07:09:47.000Z,57.58
2023-05-25T07:10:47.000Z,57.87
2023-05-25T07:11:47.000Z,57.38
2023-05-25T07:12:47.000Z,57.66
2023-05-25T07:13:47.000Z,58.20
2023-05-25T07:14:47.000Z,58.21
2023-05-25T07:15:48.000Z,57.16
2023-05-25T07:16:47.000Z,57.01
2023-05-25T07:17:48.000Z,56.82
2023-05-25T07:18:47.000Z,56.56
2023-05-25T07:19:48.000Z,56.58
2023-05-25T07:20:47.000Z,56.23
2023-05-25T07:21:47.000Z,56.76
2023-05-25T07:22:48.000Z,56.43
2023-05-25T07:23:48.000Z,56.75
2023-05-25T07:24:48.000Z,56.97
2023-05-25T07:25:48.000Z,56.47
2023-05-25T07:26:48.000Z,56.43
2023-05-25T07:27:48.000Z,56.62
2023-05-25T07:28:48.000Z,56.05
2023-05-25T07:29:48.000Z,56.39
2023-05-25T07:30:48.000Z,56.52
2023-05-25T07:31:48.000Z,56.03
2023-05-25T07:32:48.000Z,55.71
2023-05-25T07:33:48.000Z,55.79
2023-05-25T07:34:48.000Z,55.65
2023-05-25T07:35:48.000Z,55.73
2023-05-25T07:36:48.000Z,56.16
2023-05-25T07:37:56.000Z,56.09
2023-05-25T07:38:47.000Z,55.98
2023-05-25T07:39:48.000Z,57.05
2023-05-25T07:40:48.000Z,55.62
2023-05-25T07:41:48.000Z,55.29
2023-05-25T07:42:48.000Z,55.48
2023-05-25T07:43:48.000Z,55.51
2023-05-25T07:44:48.000Z,55.29
2023-05-25T07:45:48.000Z,55.09
2023-05-25T07:46:48.000Z,55.76
2023-05-25T07:47:48.000Z,56.20
2023-05-25T07:48:48.000Z,55.57
2023-05-25T07:49:47.000Z,55.80
2023-05-25T07:50:48.000Z,55.23
2023-05-25T07:51:48.000Z,55.10
2023-05-25T07:52:48.000Z,55.10
2023-05-25T07:53:48.000Z,54.89
2023-05-25T07:54:48.000Z,55.30
2023-05-25T07:55:48.000Z,56.22
2023-05-25T07:56:48.000Z,56.31
2023-05-25T07:57:47.000Z,55.10
2023-05-25T07:58:48.000Z,55.08
2023-05-25T07:59:48.000Z,55.39
2023-05-25T08:00:48.000Z,54.34
2023-05-25T08:01:47.000Z,54.24
2023-05-25T08:02:48.000Z,54.13
2023-05-25T08:03:48.000Z,54.38
2023-05-25T08:04:48.000Z,54.27
2023-05-25T08:05:48.000Z,54.10
2023-05-25T08:06:48.000Z,54.31
2023-05-25T08:07:48.000Z,54.52
2023-05-25T08:08:48.000Z,53.85
2023-05-25T08:09:47.000Z,53.84
2023-05-25T08:10:47.000Z,54.36
2023-05-25T08:11:47.000Z,53.91
2023-05-25T08:12:48.000Z,54.41
2023-05-25T08:13:47.000Z,53.52
2023-05-25T08:14:48.000Z,54.07
2023-05-25T08:15:48.000Z,53.97
2023-05-25T08:16:49.000Z,53.37
2023-05-25T08:17:49.000Z,54.14
2023-05-25T08:18:48.000Z,53.70
2023-05-25T08:19:48.000Z,53.83
2023-05-25T08:20:48.000Z,53.16
2023-05-25T08:21:48.000Z,53.01
2023-05-25T08:22:48.000Z,53.29
2023-05-25T08:23:49.000Z,53.10
2023-05-25T08:24:48.000Z,53.16
2023-05-25T08:25:48.000Z,53.15
2023-05-25T08:26:48.000Z,52.54
2023-05-25T08:27:48.000Z,53.07
2023-05-25T08:28:47.000Z,53.12
2023-05-25T08:29:48.000Z,53.03
2023-05-25T08:30:48.000Z,53.08
2023-05-25T08:31:48.000Z,53.16
2023-05-25T08:32:47.000Z,53.09
2023-05-25T08:33:47.000Z,53.13
2023-05-25T08:34:47.000Z,53.53
2023-05-25T08:35:49.000Z,53.60
2023-05-25T08:36:48.000Z,52.95
2023-05-25T08:37:47.000Z,53.00
2023-05-25T08:38:47.000Z,52.24
2023-05-25T08:39:47.000Z,52.29
2023-05-25T08:41:01.000Z,53.00
2023-05-25T08:41:49.000Z,52.68
2023-05-25T08:42:47.000Z,52.61
2023-05-25T08:43:48.000Z,52.25
2023-05-25T08:44:48.000Z,51.91
2023-05-25T08:45:48.000Z,51.89
2023-05-25T08:46:49.000Z,52.18
2023-05-25T08:47:52.000Z,52.65
2023-05-25T08:48:50.000Z,52.22
2023-05-25T08:49:48.000Z,51.93
2023-05-25T08:50:49.000Z,52.20
2023-05-25T08:51:53.000Z,51.63
2023-05-25T08:52:50.000Z,51.88
2023-05-25T08:53:49.000Z,51.62
2023-05-25T08:54:51.000Z,52.55
2023-05-25T08:55:52.000Z,53.27
2023-05-25T08:56:53.000Z,52.62
2023-05-25T08:57:54.000Z,51.94
2023-05-25T08:58:57.000Z,51.59
2023-05-25T08:59:57.000Z,51.79
2023-05-25T09:01:02.000Z,51.20
2023-05-25T09:01:53.000Z,51.83
2023-05-25T09:02:58.000Z,51.37
2023-05-25T09:03:49.000Z,51.34
2023-05-25T09:04:48.000Z,51.63
2023-05-25T09:05:49.000Z,51.57
2023-05-25T09:06:47.000Z,51.03
2023-05-25T09:07:48.000Z,51.60
2023-05-25T09:08:48.000Z,51.24
2023-05-25T09:09:48.000Z,50.77
2023-05-25T09:10:48.000Z,50.92
2023-05-25T09:11:47.000Z,49.68
2023-05-25T09:12:49.000Z,49.95
2023-05-25T09:13:48.000Z,49.96
2023-05-25T09:14:48.000Z,50.51
2023-05-25T09:15:48.000Z,50.08
2023-05-25T09:16:48.000Z,50.55
2023-05-25T09:17:47.000Z,49.93
2023-05-25T09:18:48.000Z,50.51
2023-05-25T09:19:48.000Z,49.63
2023-05-25T09:20:48.000Z,50.36
2023-05-25T09:21:47.000Z,51.05
2023-05-25T09:22:48.000Z,51.09
2023-05-25T09:23:48.000Z,50.70
2023-05-25T09:24:47.000Z,50.75
2023-05-25T09:25:49.000Z,50.83
2023-05-25T09:26:48.000Z,49.88
2023-05-25T09:27:47.000Z,50.35
2023-05-25T09:28:47.000Z,50.69
2023-05-25T09:29:48.000Z,50.01
2023-05-25T09:30:48.000Z,50.16
2023-05-25T09:31:48.000Z,48.75
2023-05-25T09:32:49.000Z,49.22
2023-05-25T09:33:47.000Z,50.38
2023-05-25T09:34:47.000Z,49.82
2023-05-25T09:35:49.000Z,49.83
2023-05-25T09:36:47.000Z,49.23
2023-05-25T09:37:47.000Z,49.18
2023-05-25T09:38:47.000Z,48.71
2023-05-25T09:39:49.000Z,49.58
2023-05-25T09:40:47.000Z,48.33
2023-05-25T09:41:47.000Z,48.80
2023-05-25T09:42:49.000Z,48.21
2023-05-25T09:43:47.000Z,48.62
2023-05-25T09:44:47.000Z,49.12
2023-05-25T09:45:50.000Z,48.80
2023-05-25T09:46:47.000Z,48.52
2023-05-25T09:47:47.000Z,49.10
2023-05-25T09:48:50.000Z,49.35
2023-05-25T09:49:49.000Z,49.63
2023-05-25T09:50:48.000Z,49.37
2023-05-25T09:51:47.000Z,48.00
2023-05-25T09:52:48.000Z,47.59
2023-05-25T09:53:47.000Z,48.23
2023-05-25T09:54:49.000Z,47.95
2023-05-25T09:55:50.000Z,48.36
2023-05-25T09:56:47.000Z,48.20
2023-05-25T09:57:52.000Z,48.45
2023-05-25T09:58:47.000Z,47.26
2023-05-25T09:59:47.000Z,47.76
2023-05-25T10:00:47.000Z,47.99
2023-05-25T10:01:50.000Z,46.88
2023-05-25T10:02:47.000Z,49.32
2023-05-25T10:03:47.000Z,48.50
2023-05-25T10:04:47.000Z,48.51
2023-05-25T10:05:47.000Z,47.65
2023-05-25T10:06:51.000Z,46.39
2023-05-25T10:07:49.000Z,46.37
2023-05-25T10:08:49.000Z,46.18
2023-05-25T10:09:50.000Z,46.47
2023-05-25T10:10:50.000Z,46.31
2023-05-25T10:11:50.000Z,46.49
2023-05-25T10:12:51.000Z,46.94
2023-05-25T10:13:48.000Z,46.80
2023-05-25T10:14:49.000Z,47.55
2023-05-25T10:15:51.000Z,46.92
2023-05-25T10:16:53.000Z,47.44
2023-05-25T10:17:52.000Z,46.92
2023-05-25T10:18:56.000Z,46.35
2023-05-25T10:19:58.000Z,46.85
2023-05-25T10:20:53.000Z,46.03
2023-05-25T10:22:00.000Z,46.62
2023-05-25T10:22:58.000Z,46.35
2023-05-25T10:23:52.000Z,47.02
2023-05-25T10:24:55.000Z,46.82
2023-05-25T10:25:53.000Z,46.73
2023-05-25T10:26:53.000Z,47.16
2023-05-25T10:27:56.000Z,46.70
2023-05-25T10:28:55.000Z,47.09
2023-05-25T10:29:51.000Z,46.80
2023-05-25T10:30:52.000Z,46.61
2023-05-25T10:31:48.000Z,47.41
2023-05-25T10:32:48.000Z,46.73
2023-05-25T10:33:48.000Z,46.71
2023-05-25T10:34:50.000Z,46.07
2023-05-25T10:35:52.000Z,45.68
2023-05-25T10:36:48.000Z,46.72
2023-05-25T10:37:50.000Z,46.87
2023-05-25T10:38:50.000Z,46.46
2023-05-25T10:39:49.000Z,46.71
2023-05-25T10:40:50.000Z,45.78
2023-05-25T10:41:49.000Z,45.47
2023-05-25T10:42:50.000Z,45.44
2023-05-25T10:43:48.000Z,45.81
2023-05-25T10:44:48.000Z,46.11
2023-05-25T10:45:48.000Z,45.99
2023-05-25T10:46:48.000Z,45.85
2023-05-25T10:47:50.000Z,45.47
2023-05-25T10:48:49.000Z,45.70
2023-05-25T10:49:56.000Z,44.30
2023-05-25T10:50:51.000Z,44.93
2023-05-25T10:51:56.000Z,44.75
2023-05-25T10:52:56.000Z,45.36
2023-05-25T10:53:59.000Z,45.11
2023-05-25T10:54:47.000Z,45.31
2023-05-25T10:56:03.000Z,45.22
2023-05-25T10:56:57.000Z,45.17
2023-05-25T10:58:07.000Z,45.16
2023-05-25T10:58:47.000Z,45.00
2023-05-25T10:59:51.000Z,43.36
2023-05-25T11:01:00.000Z,42.81
2023-05-25T11:01:49.000Z,44.18
2023-05-25T11:02:52.000Z,44.47
2023-05-25T11:03:54.000Z,44.30
2023-05-25T11:04:48.000Z,44.64
2023-05-25T11:05:50.000Z,45.13
2023-05-25T11:07:03.000Z,44.41
2023-05-25T11:07:54.000Z,43.53
2023-05-25T11:08:53.000Z,43.21
2023-05-25T11:09:56.000Z,43.40
2023-05-25T11:10:51.000Z,43.90
2023-05-25T11:12:04.000Z,43.43
2023-05-25T11:12:49.000Z,43.57
2023-05-25T11:13:48.000Z,43.93
2023-05-25T11:15:07.000Z,44.48
2023-05-25T11:15:57.000Z,44.83
2023-05-25T11:16:57.000Z,45.06
2023-05-25T11:17:57.000Z,45.76
2023-05-25T11:18:53.000Z,45.57
2023-05-25T11:19:49.000Z,44.80
2023-05-25T11:20:47.000Z,44.41
2023-05-25T11:21:48.000Z,43.58
2023-05-25T11:22:49.000Z,44.21
2023-05-25T11:23:53.000Z,44.01
2023-05-25T11:24:52.000Z,44.14
2023-05-25T11:25:47.000Z,44.15
2023-05-25T11:26:56.000Z,44.51
2023-05-25T11:27:49.000Z,44.88
2023-05-25T11:28:49.000Z,44.92
2023-05-25T11:29:49.000Z,44.71
2023-05-25T11:30:47.000Z,44.63
2023-05-25T11:31:51.000Z,44.77
2023-05-25T11:32:47.000Z,45.57
2023-05-25T11:33:48.000Z,45.12
2023-05-25T11:34:50.000Z,45.47
2023-05-25T11:35:49.000Z,44.51
2023-05-25T11:36:52.000Z,44.81
2023-05-25T11:37:50.000Z,44.72
2023-05-25T11:38:47.000Z,44.58
2023-05-25T11:39:48.000Z,44.11
2023-05-25T11:40:47.000Z,45.06
2023-05-25T11:41:52.000Z,44.78
2023-05-25T11:42:50.000Z,44.30
2023-05-25T11:43:49.000Z,44.22
2023-05-25T11:44:47.000Z,45.41
2023-05-25T11:45:53.000Z,45.13
2023-05-25T11:46:48.000Z,45.10
2023-05-25T11:47:47.000Z,45.33
2023-05-25T11:48:51.000Z,45.23
2023-05-25T11:49:48.000Z,45.24
2023-05-25T11:51:02.000Z,45.09
2023-05-25T11:51:47.000Z,45.03
2023-05-25T11:52:47.000Z,45.14
2023-05-25T11:53:48.000Z,44.75
2023-05-25T11:54:47.000Z,44.93
2023-05-25T11:55:47.000Z,44.90
2023-05-25T11:56:48.000Z,44.99
2023-05-25T11:57:54.000Z,44.09
2023-05-25T11:58:50.000Z,44.15
2023-05-25T11:59:50.000Z,44.35
2023-05-25T12:00:47.000Z,44.56
2023-05-25T12:01:56.000Z,44.96
2023-05-25T12:02:47.000Z,44.58
2023-05-25T12:03:49.000Z,44.66
2023-05-25T12:04:57.000Z,44.48
2023-05-25T12:05:47.000Z,44.57
2023-05-25T12:06:48.000Z,44.33
2023-05-25T12:07:47.000Z,44.49
2023-05-25T12:08:47.000Z,44.57
2023-05-25T12:09:47.000Z,44.46
2023-05-25T12:10:49.000Z,44.78
2023-05-25T12:11:48.000Z,44.47
2023-05-25T12:12:49.000Z,44.71
2023-05-25T12:13:47.000Z,44.85
2023-05-25T12:14:48.000Z,44.19
2023-05-25T12:15:47.000Z,44.92
2023-05-25T12:16:48.000Z,44.79
2023-05-25T12:17:48.000Z,44.97
2023-05-25T12:18:48.000Z,45.17
2023-05-25T12:19:48.000Z,44.83
2023-05-25T12:20:48.000Z,45.42
2023-05-25T12:21:50.000Z,44.68
2023-05-25T12:22:48.000Z,44.26
2023-05-25T12:23:48.000Z,44.36
2023-05-25T12:24:48.000Z,44.52
2023-05-25T12:26:05.000Z,44.32
2023-05-25T12:26:52.000Z,44.54
2023-05-25T12:27:47.000Z,44.98
2023-05-25T12:28:57.000Z,44.57
2023-05-25T12:29:48.000Z,44.16
2023-05-25T12:30:47.000Z,44.06
2023-05-25T12:31:47.000Z,44.23
2023-05-25T12:33:06.000Z,43.85
2023-05-25T12:33:57.000Z,44.02
2023-05-25T12:34:47.000Z,44.07
2023-05-25T12:35:48.000Z,44.43
2023-05-25T12:36:50.000Z,44.34
2023-05-25T12:37:47.000Z,43.50
2023-05-25T12:38:58.000Z,43.49
2023-05-25T12:39:47.000Z,42.85
2023-05-25T12:41:03.000Z,42.91
2023-05-25T12:41:51.000Z,43.19
2023-05-25T12:42:55.000Z,42.90
2023-05-25T12:43:47.000Z,43.14
2023-05-25T12:44:56.000Z,43.80
2023-05-25T12:45:47.000Z,43.44
2023-05-25T12:46:48.000Z,43.42
2023-05-25T12:47:47.000Z,42.56
2023-05-25T12:48:47.000Z,43.08
2023-05-25T12:50:09.000Z,42.66
2023-05-25T12:50:56.000Z,42.46
2023-05-25T12:51:47.000Z,42.89
2023-05-25T12:52:47.000Z,42.70